sensor_id;sensor_type;location;lat;lon;timestamp;pressure;altitude;pressure_sealevel;temperature;humidity
47726;BME280;33483;48.294;16.388;2023-02-16T00:01:49;100831.16;;;-3.35;100.00
47726;BME280;33483;48.294;16.388;2023-02-16T00:04:27;100830.38;;;-3.35;100.00
47726;BME280;33483;48.294;16.388;2023-02-16T00:06:54;100835.44;;;-3.37;100.00
47726;BME280;33483;48.294;16.388;2023-02-16T00:09:22;100840.00;;;-3.31;100.00
47726;BME280;33483;48.294;16.388;2023-02-16T00:11:50;100831.81;;;-3.24;100.00
47726;BME280;33483;48.294;16.388;2023-02-16T00:14:37;100838.41;;;-3.25;100.00
47726;BME280;33483;48.294;16.388;2023-02-16T00:17:04;100838.47;;;-3.32;100.00
47726;BME280;33483;48.294;16.388;2023-02-16T00:19:36;100837.34;;;-3.34;100.00
47726;BME280;33483;48.294;16.388;2023-02-16T00:22:04;100842.00;;;-3.35;100.00
47726;BME280;33483;48.294;16.388;2023-02-16T00:24:31;100832.31;;;-3.36;100.00
47726;BME280;33483;48.294;16.388;2023-02-16T00:27:01;100835.03;;;-3.36;100.00
47726;BME280;33483;48.294;16.388;2023-02-16T00:29:30;100835.03;;;-3.36;100.00
47726;BME280;33483;48.294;16.388;2023-02-16T00:32:00;100839.25;;;-3.31;100.00
47726;BME280;33483;48.294;16.388;2023-02-16T00:34:35;100834.16;;;-3.26;100.00
47726;BME280;33483;48.294;16.388;2023-02-16T00:37:09;100834.09;;;-3.19;100.00
47726;BME280;33483;48.294;16.388;2023-02-16T00:39:37;100835.94;;;-3.09;100.00
47726;BME280;33483;48.294;16.388;2023-02-16T00:44:46;100822.34;;;-3.05;100.00
47726;BME280;33483;48.294;16.388;2023-02-16T00:49:58;100813.06;;;-3.08;100.00
47726;BME280;33483;48.294;16.388;2023-02-16T00:54:55;100799.41;;;-3.01;100.00
47726;BME280;33483;48.294;16.388;2023-02-16T00:57:23;100800.56;;;-2.98;100.00
47726;BME280;33483;48.294;16.388;2023-02-16T00:59:54;100798.97;;;-2.96;100.00
47726;BME280;33483;48.294;16.388;2023-02-16T01:02:23;100802.00;;;-2.90;100.00
47726;BME280;33483;48.294;16.388;2023-02-16T01:04:51;100791.91;;;-2.86;100.00
47726;BME280;33483;48.294;16.388;2023-02-16T01:07:18;100795.31;;;-2.82;100.00
47726;BME280;33483;48.294;16.388;2023-02-16T01:10:04;100790.94;;;-2.73;100.00
47726;BME280;33483;48.294;16.388;2023-02-16T01:12:50;100784.25;;;-2.65;100.00
47726;BME280;33483;48.294;16.388;2023-02-16T01:15:18;100780.31;;;-2.60;100.00
47726;BME280;33483;48.294;16.388;2023-02-16T01:17:47;100798.44;;;-2.54;100.00
47726;BME280;33483;48.294;16.388;2023-02-16T01:20:15;100792.19;;;-2.51;100.00
47726;BME280;33483;48.294;16.388;2023-02-16T01:22:43;100792.50;;;-2.45;100.00
47726;BME280;33483;48.294;16.388;2023-02-16T01:25:10;100799.78;;;-2.39;100.00
47726;BME280;33483;48.294;16.388;2023-02-16T01:27:37;100800.50;;;-2.35;100.00
47726;BME280;33483;48.294;16.388;2023-02-16T01:30:06;100797.34;;;-2.30;100.00
47726;BME280;33483;48.294;16.388;2023-02-16T01:32:36;100787.91;;;-2.21;100.00
47726;BME280;33483;48.294;16.388;2023-02-16T01:35:05;100790.53;;;-2.14;100.00
47726;BME280;33483;48.294;16.388;2023-02-16T01:37:32;100790.75;;;-2.05;100.00
47726;BME280;33483;48.294;16.388;2023-02-16T01:39:59;100780.50;;;-1.94;100.00
47726;BME280;33483;48.294;16.388;2023-02-16T01:42:34;100781.53;;;-1.85;100.00
47726;BME280;33483;48.294;16.388;2023-02-16T01:45:12;100777.44;;;-1.73;100.00
47726;BME280;33483;48.294;16.388;2023-02-16T01:50:33;100775.19;;;-1.55;100.00
47726;BME280;33483;48.294;16.388;2023-02-16T01:53:05;100769.97;;;-1.46;100.00
47726;BME280;33483;48.294;16.388;2023-02-16T01:55:40;100760.50;;;-1.38;100.00
47726;BME280;33483;48.294;16.388;2023-02-16T02:03:25;100759.34;;;-1.18;100.00
47726;BME280;33483;48.294;16.388;2023-02-16T02:06:12;100762.28;;;-1.08;100.00
47726;BME280;33483;48.294;16.388;2023-02-16T02:11:11;100753.47;;;-0.96;100.00
47726;BME280;33483;48.294;16.388;2023-02-16T02:16:07;100748.09;;;-0.80;100.00
47726;BME280;33483;48.294;16.388;2023-02-16T02:18:36;100751.06;;;-0.75;100.00
47726;BME280;33483;48.294;16.388;2023-02-16T02:35:03;100757.88;;;-0.47;100.00
47726;BME280;33483;48.294;16.388;2023-02-16T02:45:46;100770.47;;;-0.37;100.00
47726;BME280;33483;48.294;16.388;2023-02-16T02:48:14;100761.44;;;-0.34;100.00
47726;BME280;33483;48.294;16.388;2023-02-16T02:53:29;100762.56;;;-0.32;100.00
47726;BME280;33483;48.294;16.388;2023-02-16T02:55:58;100759.44;;;-0.30;100.00
47726;BME280;33483;48.294;16.388;2023-02-16T02:58:44;100752.34;;;-0.28;100.00
47726;BME280;33483;48.294;16.388;2023-02-16T03:01:32;100753.91;;;-0.27;100.00
47726;BME280;33483;48.294;16.388;2023-02-16T03:04:04;100754.66;;;-0.26;100.00
47726;BME280;33483;48.294;16.388;2023-02-16T03:06:33;100751.91;;;-0.26;100.00
47726;BME280;33483;48.294;16.388;2023-02-16T03:09:08;100753.38;;;-0.22;100.00
47726;BME280;33483;48.294;16.388;2023-02-16T03:11:37;100744.44;;;-0.22;100.00
47726;BME280;33483;48.294;16.388;2023-02-16T03:14:36;100749.47;;;-0.21;100.00
47726;BME280;33483;48.294;16.388;2023-02-16T03:17:10;100748.63;;;-0.18;100.00
47726;BME280;33483;48.294;16.388;2023-02-16T03:19:57;100753.66;;;-0.16;100.00
47726;BME280;33483;48.294;16.388;2023-02-16T03:22:43;100752.88;;;-0.17;100.00
47726;BME280;33483;48.294;16.388;2023-02-16T03:25:32;100748.28;;;-0.20;100.00
47726;BME280;33483;48.294;16.388;2023-02-16T03:28:20;100754.06;;;-0.18;100.00
47726;BME280;33483;48.294;16.388;2023-02-16T03:31:07;100756.47;;;-0.20;100.00
47726;BME280;33483;48.294;16.388;2023-02-16T03:33:35;100758.31;;;-0.17;100.00
47726;BME280;33483;48.294;16.388;2023-02-16T03:36:03;100757.28;;;-0.23;100.00
47726;BME280;33483;48.294;16.388;2023-02-16T03:38:30;100757.22;;;-0.35;100.00
47726;BME280;33483;48.294;16.388;2023-02-16T03:40:58;100755.47;;;-0.45;100.00
47726;BME280;33483;48.294;16.388;2023-02-16T03:43:25;100749.16;;;-0.58;100.00
47726;BME280;33483;48.294;16.388;2023-02-16T03:45:53;100752.53;;;-0.70;100.00
47726;BME280;33483;48.294;16.388;2023-02-16T03:48:20;100747.53;;;-0.72;100.00
47726;BME280;33483;48.294;16.388;2023-02-16T03:50:48;100744.81;;;-0.72;100.00
47726;BME280;33483;48.294;16.388;2023-02-16T03:53:15;100752.97;;;-0.72;100.00
47726;BME280;33483;48.294;16.388;2023-02-16T03:55:45;100744.28;;;-0.67;100.00
47726;BME280;33483;48.294;16.388;2023-02-16T03:58:13;100744.22;;;-0.63;100.00
47726;BME280;33483;48.294;16.388;2023-02-16T04:00:41;100752.97;;;-0.56;100.00
47726;BME280;33483;48.294;16.388;2023-02-16T04:03:11;100749.44;;;-0.53;100.00
47726;BME280;33483;48.294;16.388;2023-02-16T04:05:38;100743.13;;;-0.50;100.00
47726;BME280;33483;48.294;16.388;2023-02-16T04:08:07;100756.25;;;-0.45;100.00
47726;BME280;33483;48.294;16.388;2023-02-16T04:10:36;100756.94;;;-0.41;100.00
47726;BME280;33483;48.294;16.388;2023-02-16T04:13:06;100753.78;;;-0.39;100.00
47726;BME280;33483;48.294;16.388;2023-02-16T04:15:33;100746.03;;;-0.41;100.00
47726;BME280;33483;48.294;16.388;2023-02-16T04:18:00;100751.06;;;-0.39;100.00
47726;BME280;33483;48.294;16.388;2023-02-16T04:20:28;100747.06;;;-0.35;100.00
47726;BME280;33483;48.294;16.388;2023-02-16T04:22:58;100743.94;;;-0.33;100.00
47726;BME280;33483;48.294;16.388;2023-02-16T04:25:25;100742.75;;;-0.32;100.00
47726;BME280;33483;48.294;16.388;2023-02-16T04:27:52;100742.75;;;-0.32;100.00
47726;BME280;33483;48.294;16.388;2023-02-16T04:30:20;100742.31;;;-0.31;100.00
47726;BME280;33483;48.294;16.388;2023-02-16T04:32:48;100748.97;;;-0.32;100.00
47726;BME280;33483;48.294;16.388;2023-02-16T04:35:15;100745.88;;;-0.34;100.00
47726;BME280;33483;48.294;16.388;2023-02-16T04:37:42;100744.25;;;-0.31;100.00
47726;BME280;33483;48.294;16.388;2023-02-16T04:40:10;100752.84;;;-0.33;100.00
47726;BME280;33483;48.294;16.388;2023-02-16T04:42:41;100754.84;;;-0.33;100.00
47726;BME280;33483;48.294;16.388;2023-02-16T04:45:09;100747.41;;;-0.33;100.00
47726;BME280;33483;48.294;16.388;2023-02-16T04:47:36;100753.19;;;-0.31;100.00
47726;BME280;33483;48.294;16.388;2023-02-16T04:50:03;100753.19;;;-0.31;100.00
47726;BME280;33483;48.294;16.388;2023-02-16T04:52:30;100747.75;;;-0.31;100.00
47726;BME280;33483;48.294;16.388;2023-02-16T04:54:58;100750.13;;;-0.33;100.00
47726;BME280;33483;48.294;16.388;2023-02-16T04:57:27;100757.56;;;-0.33;100.00
47726;BME280;33483;48.294;16.388;2023-02-16T04:59:55;100746.22;;;-0.32;100.00
47726;BME280;33483;48.294;16.388;2023-02-16T05:02:24;100748.19;;;-0.32;100.00
47726;BME280;33483;48.294;16.388;2023-02-16T05:04:52;100745.47;;;-0.32;100.00
47726;BME280;33483;48.294;16.388;2023-02-16T05:07:19;100736.84;;;-0.31;100.00
47726;BME280;33483;48.294;16.388;2023-02-16T05:09:46;100743.75;;;-0.26;100.00
47726;BME280;33483;48.294;16.388;2023-02-16T05:12:13;100745.28;;;-0.25;100.00
47726;BME280;33483;48.294;16.388;2023-02-16T05:14:59;100739.06;;;-0.26;100.00
47726;BME280;33483;48.294;16.388;2023-02-16T05:17:26;100735.56;;;-0.26;100.00
47726;BME280;33483;48.294;16.388;2023-02-16T05:19:55;100739.00;;;-0.22;100.00
47726;BME280;33483;48.294;16.388;2023-02-16T05:22:22;100739.06;;;-0.26;100.00
47726;BME280;33483;48.294;16.388;2023-02-16T05:24:50;100726.56;;;-0.23;100.00
47726;BME280;33483;48.294;16.388;2023-02-16T05:27:19;100735.19;;;-0.25;100.00
47726;BME280;33483;48.294;16.388;2023-02-16T05:29:47;100732.03;;;-0.23;100.00
47726;BME280;33483;48.294;16.388;2023-02-16T05:32:14;100738.66;;;-0.24;100.00
47726;BME280;33483;48.294;16.388;2023-02-16T05:34:44;100741.72;;;-0.22;100.00
47726;BME280;33483;48.294;16.388;2023-02-16T05:37:12;100737.03;;;-0.22;100.00
47726;BME280;33483;48.294;16.388;2023-02-16T05:39:39;100739.75;;;-0.22;100.00
47726;BME280;33483;48.294;16.388;2023-02-16T05:42:06;100748.28;;;-0.20;100.00
47726;BME280;33483;48.294;16.388;2023-02-16T05:44:35;100745.22;;;-0.22;100.00
47726;BME280;33483;48.294;16.388;2023-02-16T05:47:04;100742.84;;;-0.20;100.00
47726;BME280;33483;48.294;16.388;2023-02-16T05:49:31;100743.94;;;-0.17;100.00
47726;BME280;33483;48.294;16.388;2023-02-16T05:51:58;100746.22;;;-0.16;100.00
47726;BME280;33483;48.294;16.388;2023-02-16T05:54:25;100754.06;;;-0.18;100.00
47726;BME280;33483;48.294;16.388;2023-02-16T05:56:53;100752.09;;;-0.17;100.00
47726;BME280;33483;48.294;16.388;2023-02-16T05:59:21;100756.81;;;-0.18;100.00
47726;BME280;33483;48.294;16.388;2023-02-16T06:01:48;100754.81;;;-0.17;100.00
47726;BME280;33483;48.294;16.388;2023-02-16T06:04:19;100754.47;;;-0.19;100.00
47726;BME280;33483;48.294;16.388;2023-02-16T06:06:46;100754.06;;;-0.18;100.00
47726;BME280;33483;48.294;16.388;2023-02-16T06:09:16;100752.03;;;-0.14;100.00
47726;BME280;33483;48.294;16.388;2023-02-16T06:11:43;100755.44;;;-0.10;100.00
47726;BME280;33483;48.294;16.388;2023-02-16T06:14:19;100754.16;;;-0.05;100.00
47726;BME280;33483;48.294;16.388;2023-02-16T06:16:47;100751.41;;;-0.05;100.00
47726;BME280;33483;48.294;16.388;2023-02-16T06:19:15;100749.47;;;-0.05;100.00
47726;BME280;33483;48.294;16.388;2023-02-16T06:21:43;100754.06;;;-0.02;100.00
47726;BME280;33483;48.294;16.388;2023-02-16T06:24:11;100757.91;;;0.01;100.00
47726;BME280;33483;48.294;16.388;2023-02-16T06:26:38;100761.41;;;0.02;100.00
47726;BME280;33483;48.294;16.388;2023-02-16T06:29:06;100751.69;;;0.00;100.00
47726;BME280;33483;48.294;16.388;2023-02-16T06:31:33;100761.41;;;0.02;100.00
47726;BME280;33483;48.294;16.388;2023-02-16T06:34:03;100763.97;;;0.09;100.00
47726;BME280;33483;48.294;16.388;2023-02-16T06:36:30;100759.59;;;0.11;100.00
47726;BME280;33483;48.294;16.388;2023-02-16T06:38:57;100762.25;;;0.15;100.00
47726;BME280;33483;48.294;16.388;2023-02-16T06:41:24;100761.88;;;0.13;100.00
47726;BME280;33483;48.294;16.388;2023-02-16T06:44:02;100770.84;;;0.13;100.00
47726;BME280;33483;48.294;16.388;2023-02-16T06:46:32;100767.69;;;0.15;100.00
47726;BME280;33483;48.294;16.388;2023-02-16T06:48:59;100772.38;;;0.14;100.00
47726;BME280;33483;48.294;16.388;2023-02-16T06:51:28;100776.97;;;0.17;100.00
47726;BME280;33483;48.294;16.388;2023-02-16T06:53:56;100779.28;;;0.19;100.00
47726;BME280;33483;48.294;16.388;2023-02-16T06:56:23;100779.97;;;0.23;100.00
47726;BME280;33483;48.294;16.388;2023-02-16T06:58:51;100779.09;;;0.26;100.00
47726;BME280;33483;48.294;16.388;2023-02-16T07:01:17;100772.88;;;0.25;100.00
47726;BME280;33483;48.294;16.388;2023-02-16T07:03:49;100776.28;;;0.29;100.00
47726;BME280;33483;48.294;16.388;2023-02-16T07:06:19;100778.16;;;0.32;100.00
47726;BME280;33483;48.294;16.388;2023-02-16T07:08:46;100788.97;;;0.36;100.00
47726;BME280;33483;48.294;16.388;2023-02-16T07:11:14;100788.53;;;0.37;100.00
47726;BME280;33483;48.294;16.388;2023-02-16T07:13:41;100786.16;;;0.39;100.00
47726;BME280;33483;48.294;16.388;2023-02-16T07:16:13;100788.63;;;0.50;100.00
47726;BME280;33483;48.294;16.388;2023-02-16T07:18:41;100784.38;;;0.49;100.00
47726;BME280;33483;48.294;16.388;2023-02-16T07:21:08;100780.88;;;0.48;100.00
47726;BME280;33483;48.294;16.388;2023-02-16T07:23:35;100776.00;;;0.56;100.00
47726;BME280;33483;48.294;16.388;2023-02-16T07:26:02;100775.22;;;0.55;100.00
47726;BME280;33483;48.294;16.388;2023-02-16T07:28:29;100782.38;;;0.65;100.00
47726;BME280;33483;48.294;16.388;2023-02-16T07:30:59;100780.41;;;0.66;100.00
47726;BME280;33483;48.294;16.388;2023-02-16T07:33:32;100779.63;;;0.65;100.00
47726;BME280;33483;48.294;16.388;2023-02-16T07:35:58;100773.84;;;0.63;100.00
47726;BME280;33483;48.294;16.388;2023-02-16T07:38:26;100768.03;;;0.61;100.00
47726;BME280;33483;48.294;16.388;2023-02-16T07:40:58;100771.13;;;0.63;100.00
47726;BME280;33483;48.294;16.388;2023-02-16T07:43:28;100769.66;;;0.75;100.00
47726;BME280;33483;48.294;16.388;2023-02-16T07:45:55;100772.84;;;0.86;100.00
47726;BME280;33483;48.294;16.388;2023-02-16T07:48:22;100764.03;;;0.94;100.00
47726;BME280;33483;48.294;16.388;2023-02-16T07:50:49;100765.91;;;0.97;100.00
47726;BME280;33483;48.294;16.388;2023-02-16T07:53:17;100769.63;;;1.03;100.00
47726;BME280;33483;48.294;16.388;2023-02-16T07:55:44;100768.63;;;0.97;100.00
47726;BME280;33483;48.294;16.388;2023-02-16T07:58:12;100768.84;;;1.03;100.00
47726;BME280;33483;48.294;16.388;2023-02-16T08:00:59;100770.41;;;1.04;100.00
47726;BME280;33483;48.294;16.388;2023-02-16T08:03:32;100769.75;;;1.12;100.00
47726;BME280;33483;48.294;16.388;2023-02-16T08:05:59;100770.13;;;1.27;100.00
47726;BME280;33483;48.294;16.388;2023-02-16T08:08:27;100777.25;;;1.50;100.00
47726;BME280;33483;48.294;16.388;2023-02-16T08:10:54;100784.34;;;1.47;100.00
47726;BME280;33483;48.294;16.388;2023-02-16T08:13:21;100779.34;;;1.71;100.00
47726;BME280;33483;48.294;16.388;2023-02-16T08:15:49;100783.38;;;1.79;100.00
47726;BME280;33483;48.294;16.388;2023-02-16T08:18:16;100776.50;;;1.74;100.00
47726;BME280;33483;48.294;16.388;2023-02-16T08:20:43;100773.56;;;1.81;100.00
47726;BME280;33483;48.294;16.388;2023-02-16T08:23:30;100781.91;;;2.37;100.00
47726;BME280;33483;48.294;16.388;2023-02-16T08:25:57;100785.59;;;2.99;100.00
47726;BME280;33483;48.294;16.388;2023-02-16T08:28:25;100790.81;;;3.80;100.00
47726;BME280;33483;48.294;16.388;2023-02-16T08:30:54;100788.94;;;3.77;100.00
47726;BME280;33483;48.294;16.388;2023-02-16T08:33:22;100795.16;;;3.68;100.00
47726;BME280;33483;48.294;16.388;2023-02-16T08:35:49;100796.75;;;4.27;100.00
47726;BME280;33483;48.294;16.388;2023-02-16T08:38:16;100795.13;;;4.56;100.00
47726;BME280;33483;48.294;16.388;2023-02-16T08:40:49;100801.19;;;4.42;100.00
47726;BME280;33483;48.294;16.388;2023-02-16T08:43:17;100799.03;;;4.28;100.00
47726;BME280;33483;48.294;16.388;2023-02-16T08:45:46;100803.16;;;4.33;100.00
47726;BME280;33483;48.294;16.388;2023-02-16T08:48:14;100803.41;;;4.17;100.00
47726;BME280;33483;48.294;16.388;2023-02-16T08:50:46;100804.84;;;3.91;100.00
47726;BME280;33483;48.294;16.388;2023-02-16T08:53:20;100800.81;;;4.13;100.00
47726;BME280;33483;48.294;16.388;2023-02-16T08:55:58;100799.63;;;4.23;100.00
47726;BME280;33483;48.294;16.388;2023-02-16T08:58:26;100802.22;;;4.36;100.00
47726;BME280;33483;48.294;16.388;2023-02-16T09:00:54;100812.81;;;4.55;100.00
47726;BME280;33483;48.294;16.388;2023-02-16T09:03:24;100809.16;;;4.77;100.00
47726;BME280;33483;48.294;16.388;2023-02-16T09:05:51;100803.94;;;4.42;100.00
47726;BME280;33483;48.294;16.388;2023-02-16T09:08:18;100806.88;;;4.84;100.00
47726;BME280;33483;48.294;16.388;2023-02-16T09:10:45;100805.06;;;4.81;100.00
47726;BME280;33483;48.294;16.388;2023-02-16T09:13:13;100809.47;;;4.88;100.00
47726;BME280;33483;48.294;16.388;2023-02-16T09:15:43;100810.22;;;4.70;100.00
47726;BME280;33483;48.294;16.388;2023-02-16T09:18:11;100821.38;;;4.94;100.00
47726;BME280;33483;48.294;16.388;2023-02-16T09:20:41;100822.13;;;4.94;100.00
47726;BME280;33483;48.294;16.388;2023-02-16T09:23:14;100814.66;;;4.77;100.00
47726;BME280;33483;48.294;16.388;2023-02-16T09:25:41;100810.38;;;5.03;100.00
47726;BME280;33483;48.294;16.388;2023-02-16T09:28:09;100807.03;;;4.99;100.00
47726;BME280;33483;48.294;16.388;2023-02-16T09:30:37;100814.66;;;5.13;100.00
47726;BME280;33483;48.294;16.388;2023-02-16T09:33:04;100815.88;;;5.12;100.00
47726;BME280;33483;48.294;16.388;2023-02-16T09:35:31;100814.50;;;5.16;100.00
47726;BME280;33483;48.294;16.388;2023-02-16T09:37:58;100807.16;;;5.31;100.00
47726;BME280;33483;48.294;16.388;2023-02-16T09:40:28;100811.88;;;5.40;100.00
47726;BME280;33483;48.294;16.388;2023-02-16T09:43:02;100802.47;;;5.73;100.00
47726;BME280;33483;48.294;16.388;2023-02-16T09:45:41;100806.81;;;5.98;100.00
47726;BME280;33483;48.294;16.388;2023-02-16T09:48:13;100799.75;;;6.06;100.00
47726;BME280;33483;48.294;16.388;2023-02-16T09:50:44;100801.41;;;5.71;100.00
47726;BME280;33483;48.294;16.388;2023-02-16T09:53:40;100799.78;;;5.55;100.00
47726;BME280;33483;48.294;16.388;2023-02-16T09:56:24;100791.00;;;5.24;100.00
47726;BME280;33483;48.294;16.388;2023-02-16T09:58:58;100791.16;;;5.21;100.00
47726;BME280;33483;48.294;16.388;2023-02-16T10:09:44;100789.50;;;5.65;100.00
47726;BME280;33483;48.294;16.388;2023-02-16T10:12:14;100783.78;;;5.87;100.00
47726;BME280;33483;48.294;16.388;2023-02-16T10:14:49;100777.63;;;6.01;100.00
47726;BME280;33483;48.294;16.388;2023-02-16T10:17:43;100782.91;;;6.13;100.00
47726;BME280;33483;48.294;16.388;2023-02-16T10:25:41;100774.47;;;6.17;100.00
47726;BME280;33483;48.294;16.388;2023-02-16T10:28:14;100768.56;;;6.09;100.00
47726;BME280;33483;48.294;16.388;2023-02-16T10:33:43;100772.25;;;6.06;100.00
47726;BME280;33483;48.294;16.388;2023-02-16T10:36:26;100770.44;;;6.03;100.00
47726;BME280;33483;48.294;16.388;2023-02-16T10:39:02;100767.22;;;6.05;100.00
47726;BME280;33483;48.294;16.388;2023-02-16T10:41:35;100766.88;;;6.12;100.00
47726;BME280;33483;48.294;16.388;2023-02-16T10:44:10;100754.31;;;6.11;100.00
47726;BME280;33483;48.294;16.388;2023-02-16T10:46:41;100762.94;;;6.27;100.00
47726;BME280;33483;48.294;16.388;2023-02-16T10:49:13;100760.41;;;6.38;100.00
47726;BME280;33483;48.294;16.388;2023-02-16T10:51:44;100749.31;;;6.33;100.00
47726;BME280;33483;48.294;16.388;2023-02-16T10:54:14;100740.69;;;6.16;100.00
47726;BME280;33483;48.294;16.388;2023-02-16T10:56:51;100740.47;;;6.29;100.00
47726;BME280;33483;48.294;16.388;2023-02-16T10:59:23;100732.88;;;6.62;100.00
47726;BME280;33483;48.294;16.388;2023-02-16T11:01:54;100726.59;;;6.61;100.00
47726;BME280;33483;48.294;16.388;2023-02-16T11:07:04;100723.63;;;6.89;100.00
47726;BME280;33483;48.294;16.388;2023-02-16T11:09:31;100723.69;;;6.94;100.00
47726;BME280;33483;48.294;16.388;2023-02-16T11:11:59;100726.03;;;6.72;100.00
47726;BME280;33483;48.294;16.388;2023-02-16T11:14:26;100718.84;;;6.89;100.00
47726;BME280;33483;48.294;16.388;2023-02-16T11:17:03;100715.22;;;6.98;100.00
47726;BME280;33483;48.294;16.388;2023-02-16T11:19:31;100726.84;;;7.16;100.00
47726;BME280;33483;48.294;16.388;2023-02-16T11:22:00;100713.81;;;7.17;100.00
47726;BME280;33483;48.294;16.388;2023-02-16T11:24:32;100713.81;;;7.46;100.00
47726;BME280;33483;48.294;16.388;2023-02-16T11:27:00;100709.13;;;7.52;100.00
47726;BME280;33483;48.294;16.388;2023-02-16T11:29:27;100708.00;;;7.44;100.00
47726;BME280;33483;48.294;16.388;2023-02-16T11:31:55;100713.31;;;7.47;100.00
47726;BME280;33483;48.294;16.388;2023-02-16T11:37:06;100699.63;;;7.53;100.00
47726;BME280;33483;48.294;16.388;2023-02-16T11:39:36;100694.53;;;7.66;100.00
47726;BME280;33483;48.294;16.388;2023-02-16T11:42:08;100690.38;;;7.56;100.00
47726;BME280;33483;48.294;16.388;2023-02-16T11:44:47;100684.16;;;7.26;100.00
47726;BME280;33483;48.294;16.388;2023-02-16T11:49:48;100687.69;;;7.12;100.00
47726;BME280;33483;48.294;16.388;2023-02-16T11:54:49;100676.38;;;7.25;100.00
47726;BME280;33483;48.294;16.388;2023-02-16T11:57:28;100683.19;;;7.29;100.00
47726;BME280;33483;48.294;16.388;2023-02-16T11:59:57;100669.97;;;7.33;100.00
47726;BME280;33483;48.294;16.388;2023-02-16T12:02:35;100670.38;;;7.26;100.00
47726;BME280;33483;48.294;16.388;2023-02-16T12:05:17;100675.03;;;7.20;100.00
47726;BME280;33483;48.294;16.388;2023-02-16T12:10:50;100659.81;;;7.25;100.00
47726;BME280;33483;48.294;16.388;2023-02-16T12:13:44;100655.34;;;7.27;100.00
47726;BME280;33483;48.294;16.388;2023-02-16T12:36:58;100611.22;;;7.27;100.00
47726;BME280;33483;48.294;16.388;2023-02-16T12:39:33;100606.66;;;7.39;100.00
47726;BME280;33483;48.294;16.388;2023-02-16T12:44:42;100607.34;;;7.19;100.00
47726;BME280;33483;48.294;16.388;2023-02-16T12:47:13;100597.63;;;7.24;100.00
47726;BME280;33483;48.294;16.388;2023-02-16T12:49:57;100596.91;;;7.23;100.00
47726;BME280;33483;48.294;16.388;2023-02-16T12:52:39;100604.56;;;7.34;100.00
47726;BME280;33483;48.294;16.388;2023-02-16T13:00:45;100588.94;;;6.96;100.00
47726;BME280;33483;48.294;16.388;2023-02-16T13:08:32;100568.44;;;6.97;100.00
47726;BME280;33483;48.294;16.388;2023-02-16T13:11:10;100571.88;;;6.92;100.00
47726;BME280;33483;48.294;16.388;2023-02-16T13:13:42;100570.41;;;6.97;100.00
47726;BME280;33483;48.294;16.388;2023-02-16T13:16:25;100574.56;;;7.07;100.00
47726;BME280;33483;48.294;16.388;2023-02-16T13:18:57;100572.78;;;7.04;100.00
47726;BME280;33483;48.294;16.388;2023-02-16T13:40:17;100550.56;;;6.93;100.00
47726;BME280;33483;48.294;16.388;2023-02-16T13:42:55;100556.94;;;6.84;100.00
47726;BME280;33483;48.294;16.388;2023-02-16T13:45:30;100543.84;;;6.79;100.00
47726;BME280;33483;48.294;16.388;2023-02-16T13:47:58;100540.91;;;6.68;100.00
47726;BME280;33483;48.294;16.388;2023-02-16T13:50:26;100532.81;;;6.64;100.00
47726;BME280;33483;48.294;16.388;2023-02-16T13:52:55;100544.03;;;6.61;100.00
47726;BME280;33483;48.294;16.388;2023-02-16T13:55:35;100536.34;;;6.50;100.00
47726;BME280;33483;48.294;16.388;2023-02-16T13:58:05;100547.09;;;6.48;100.00
47726;BME280;33483;48.294;16.388;2023-02-16T14:03:01;100551.94;;;6.39;100.00
47726;BME280;33483;48.294;16.388;2023-02-16T14:05:33;100550.63;;;6.34;100.00
47726;BME280;33483;48.294;16.388;2023-02-16T14:08:34;100558.75;;;6.29;100.00
47726;BME280;33483;48.294;16.388;2023-02-16T14:15:52;100547.25;;;6.16;100.00
47726;BME280;33483;48.294;16.388;2023-02-16T14:21:04;100545.16;;;6.11;100.00
47726;BME280;33483;48.294;16.388;2023-02-16T14:23:33;100540.91;;;6.10;100.00
47726;BME280;33483;48.294;16.388;2023-02-16T14:26:04;100536.13;;;6.10;100.00
47726;BME280;33483;48.294;16.388;2023-02-16T14:31:13;100541.75;;;6.01;100.00
47726;BME280;33483;48.294;16.388;2023-02-16T14:36:21;100542.19;;;5.85;100.00
47726;BME280;33483;48.294;16.388;2023-02-16T14:38:53;100537.72;;;5.88;100.00
47726;BME280;33483;48.294;16.388;2023-02-16T14:43:49;100527.81;;;5.81;100.00
47726;BME280;33483;48.294;16.388;2023-02-16T14:56:44;100516.88;;;5.72;100.00
47726;BME280;33483;48.294;16.388;2023-02-16T14:59:27;100519.59;;;5.57;100.00
47726;BME280;33483;48.294;16.388;2023-02-16T15:01:56;100517.69;;;5.49;100.00
47726;BME280;33483;48.294;16.388;2023-02-16T15:04:28;100514.81;;;5.43;100.00
47726;BME280;33483;48.294;16.388;2023-02-16T15:06:56;100519.03;;;5.30;100.00
47726;BME280;33483;48.294;16.388;2023-02-16T15:09:28;100522.13;;;5.23;100.00
47726;BME280;33483;48.294;16.388;2023-02-16T15:11:57;100509.31;;;5.20;100.00
47726;BME280;33483;48.294;16.388;2023-02-16T15:14:47;100512.47;;;5.04;100.00
47726;BME280;33483;48.294;16.388;2023-02-16T15:18:01;100510.50;;;4.95;100.00
47726;BME280;33483;48.294;16.388;2023-02-16T15:20:15;100504.91;;;4.90;100.00
47726;BME280;33483;48.294;16.388;2023-02-16T15:22:49;100511.47;;;4.83;100.00
47726;BME280;33483;48.294;16.388;2023-02-16T15:30:22;100509.91;;;4.58;100.00
47726;BME280;33483;48.294;16.388;2023-02-16T15:32:54;100510.25;;;4.51;100.00
47726;BME280;33483;48.294;16.388;2023-02-16T15:35:26;100508.44;;;4.39;100.00
47726;BME280;33483;48.294;16.388;2023-02-16T15:38:01;100505.84;;;4.36;100.00